Temp: 18.8°C   Baro: 1015.1mb
  Wind: 6.0mph   Dir: S (169°)
  Rain: 0.0mm (0.0mm/hr)
  Solar: 775W/m2  Hum: 66%
 
Bath Spa Weather Station Historical Data
Daily Summary for June 19, 2019 Units:  Metric    English   Both
Daily Weekly Monthly Yearly Custom
  High: Low: Average:
Temperature: 18.1 °C 12.1 °C 14.3 °C
Dew Point: 13.7 °C 9.8 °C 10.9 °C
Humidity: 92.3% 62% 81%
Wind Speed: 24.3km/h 0km/h 8.5km/h
Wind Gust: 45.1km/h - -
Wind- - West
Pressure: 1018.8 hPa 1009.4 hPa -
Precipitation: 9.65 mm    
Historical Graphs
 
 
Tabular Data for June 19, 2019
Time Temperature Dew Point Pressure Wind Wind Speed Wind Gust Humidity Rainfall Rate (Hourly) solar
00:04 13.4 °C 10.6 °C 1009.4 hPa SW 10.5 km/h 20.9 km/h 83.2% 0 mm 0 W/m2
00:07 13.3 °C 10.7 °C 1009.4 hPa SW 9 km/h 16.1 km/h 83.7% 0 mm 0 W/m2
00:10 13.3 °C 10.7 °C 1009.4 hPa WSW 9.7 km/h 16.1 km/h 84% 0 mm 0 W/m2
00:19 13.2 °C 10.6 °C 1009.7 hPa WSW 8.4 km/h 17.7 km/h 84% 0 mm 0 W/m2
00:24 13.2 °C 10.6 °C 1009.7 hPa WSW 10.8 km/h 19.3 km/h 84% 0 mm 0 W/m2
00:29 13.2 °C 10.6 °C 1009.4 hPa SW 9.8 km/h 19.3 km/h 84% 0 mm 0 W/m2
00:34 13.1 °C 10.4 °C 1009.4 hPa WSW 8.9 km/h 17.7 km/h 84% 0 mm 0 W/m2
00:39 13 °C 10.4 °C 1009.7 hPa SW 9.2 km/h 17.7 km/h 84% 0 mm 0 W/m2
00:44 13 °C 10.4 °C 1009.7 hPa WSW 8.2 km/h 14.5 km/h 84% 0 mm 0 W/m2
00:49 12.9 °C 10.3 °C 1009.7 hPa WSW 7.2 km/h 14.5 km/h 84% 0 mm 0 W/m2
00:54 12.9 °C 10.4 °C 1009.7 hPa WSW 9.8 km/h 24.1 km/h 85% 0 mm 0 W/m2
00:59 12.9 °C 10.4 °C 1009.7 hPa SW 13.7 km/h 24.1 km/h 85% 0 mm 0 W/m2
01:04 12.9 °C 10.4 °C 1009.7 hPa SW 14.5 km/h 25.7 km/h 85% 0 mm 0 W/m2
01:09 12.9 °C 10.4 °C 1009.7 hPa WSW 9.5 km/h 20.9 km/h 85% 0 mm 0 W/m2
01:14 12.9 °C 10.3 °C 1009.7 hPa WSW 8 km/h 20.9 km/h 84.6% 0 mm 0 W/m2
01:19 12.8 °C 10.3 °C 1009.7 hPa WSW 6.4 km/h 14.5 km/h 84.9% 0 mm 0 W/m2
01:24 12.8 °C 10.3 °C 1009.7 hPa WSW 4.3 km/h 12.9 km/h 85% 0 mm 0 W/m2
01:29 12.8 °C 10.3 °C 1009.7 hPa WSW 8.7 km/h 17.7 km/h 85% 0 mm 0 W/m2
01:34 12.8 °C 10.3 °C 1009.7 hPa WSW 11.9 km/h 25.7 km/h 85% 0 mm 0 W/m2
01:39 12.8 °C 10.3 °C 1009.7 hPa West 7.4 km/h 25.7 km/h 85% 0 mm 0 W/m2
01:44 12.9 °C 10.4 °C 1009.7 hPa WSW 7.6 km/h 17.7 km/h 85% 0 mm 0 W/m2
01:49 12.9 °C 10.4 °C 1009.7 hPa WSW 12.2 km/h 19.3 km/h 85% 0 mm 0 W/m2
01:54 13 °C 10.5 °C 1009.7 hPa WSW 9.7 km/h 20.9 km/h 85% 0 mm 0 W/m2
01:59 13 °C 10.5 °C 1009.7 hPa WSW 10.8 km/h 20.9 km/h 85% 0 mm 0 W/m2
02:04 12.9 °C 10.4 °C 1009.7 hPa SW 8.5 km/h 17.7 km/h 85% 0 mm 0 W/m2
02:09 12.9 °C 10.4 °C 1009.7 hPa WSW 12.1 km/h 20.9 km/h 85% 0 mm 0 W/m2
02:14 12.8 °C 10.3 °C 1009.7 hPa WSW 7.2 km/h 20.9 km/h 85% 0 mm 0 W/m2
02:19 12.8 °C 10.3 °C 1009.7 hPa WSW 6.8 km/h 12.9 km/h 85% 0 mm 0 W/m2
02:24 12.7 °C 10.2 °C 1009.7 hPa WSW 6.9 km/h 16.1 km/h 85% 0 mm 0 W/m2
02:29 12.7 °C 10.2 °C 1010 hPa WSW 6.8 km/h 12.9 km/h 85% 0 mm 0 W/m2
02:34 12.7 °C 10.2 °C 1009.7 hPa West 7.6 km/h 16.1 km/h 85.3% 0 mm 0 W/m2
02:39 12.6 °C 10.3 °C 1010 hPa West 9.7 km/h 19.3 km/h 86% 0 mm 0 W/m2
02:44 12.6 °C 10.3 °C 1009.7 hPa West 5 km/h 19.3 km/h 86% 0 mm 0 W/m2
02:49 12.7 °C 10.3 °C 1009.7 hPa West 7.6 km/h 14.5 km/h 86% 0 mm 0 W/m2
02:54 12.7 °C 10.3 °C 1010 hPa West 12.1 km/h 22.5 km/h 85.6% 0 mm 0 W/m2
02:59 12.7 °C 10.2 °C 1010 hPa West 6.1 km/h 14.5 km/h 85% 0 mm 0 W/m2
03:04 12.7 °C 10.2 °C 1010 hPa West 5 km/h 11.3 km/h 85% 0 mm 0 W/m2
03:09 12.6 °C 10.1 °C 1010 hPa West 10.3 km/h 17.7 km/h 85% 0 mm 0 W/m2
03:14 12.6 °C 10.2 °C 1010 hPa West 5.6 km/h 14.5 km/h 85.3% 0 mm 0 W/m2
03:19 12.6 °C 10.3 °C 1010 hPa WSW 8.7 km/h 17.7 km/h 86% 0 mm 0 W/m2
03:24 12.6 °C 10.3 °C 1010 hPa West 6 km/h 12.9 km/h 86% 0 mm 0 W/m2
03:29 12.6 °C 10.3 °C 1010 hPa West 5.6 km/h 12.9 km/h 86% 0 mm 0 W/m2
03:34 12.6 °C 10.2 °C 1010 hPa WSW 7.2 km/h 14.5 km/h 86% 0 mm 0 W/m2
03:39 12.5 °C 10.2 °C 1010 hPa West 2.9 km/h 12.9 km/h 86% 0 mm 0 W/m2
03:44 12.5 °C 10.2 °C 1010 hPa WSW 4.2 km/h 12.9 km/h 86% 0 mm 0 W/m2
03:49 12.5 °C 10.2 °C 1010 hPa WSW 4.3 km/h 9.7 km/h 86% 0 mm 0 W/m2
03:54 12.4 °C 10.1 °C 1010 hPa West 4.5 km/h 16.1 km/h 86% 0 mm 0 W/m2
03:59 12.4 °C 10.1 °C 1010 hPa WSW 6 km/h 16.1 km/h 86% 0 mm 0 W/m2
04:04 12.3 °C 10 °C 1010 hPa WSW 6.9 km/h 16.1 km/h 86% 0 mm 0 W/m2
04:09 12.3 °C 10 °C 1010 hPa WSW 5.6 km/h 14.5 km/h 86% 0 mm 0 W/m2
04:14 12.3 °C 10 °C 1010 hPa WSW 6 km/h 14.5 km/h 86% 0 mm 0 W/m2
04:19 12.3 °C 10 °C 1010 hPa WSW 2.7 km/h 14.5 km/h 86% 0 mm 0 W/m2
04:24 12.3 °C 9.9 °C 1010 hPa West 4.3 km/h 9.7 km/h 86% 0 mm 0 W/m2
04:29 12.2 °C 9.9 °C 1010 hPa West 3.4 km/h 9.7 km/h 86% 0 mm 0 W/m2
04:34 12.2 °C 10 °C 1010.4 hPa West 2.4 km/h 11.3 km/h 86.6% 0 mm 0 W/m2
04:39 12.2 °C 10.1 °C 1010.4 hPa West 1.9 km/h 8 km/h 87% 0 mm 0 W/m2
04:44 12.2 °C 10.1 °C 1010.4 hPa West 1.4 km/h 8 km/h 87% 0 mm 0 W/m2
04:49 12.2 °C 10.1 °C 1010.4 hPa West 4.3 km/h 8 km/h 87% 0 mm 0 W/m2
04:54 12.2 °C 10.1 °C 1010.4 hPa West 1.3 km/h 6.4 km/h 87% 0 mm 0 W/m2
04:59 12.3 °C 10.2 °C 1010.4 hPa SW 3.1 km/h 9.7 km/h 87% 0 mm 0 W/m2
05:04 12.3 °C 10.2 °C 1010.4 hPa WSW 3.7 km/h 11.3 km/h 87% 0 mm 0 W/m2
05:09 12.3 °C 10.2 °C 1010.7 hPa WSW 2.7 km/h 9.7 km/h 87% 0 mm 0 W/m2
05:14 12.3 °C 10.2 °C 1010.7 hPa WSW 2.3 km/h 8 km/h 87% 0 mm 0 W/m2
05:19 12.3 °C 10.2 °C 1010.7 hPa WNW 5.6 km/h 11.3 km/h 87% 0 mm 0 W/m2
05:24 12.3 °C 10.2 °C 1010.7 hPa West 3.5 km/h 9.7 km/h 87% 0 mm 0 W/m2
05:29 12.3 °C 10.2 °C 1010.7 hPa WNW 6.1 km/h 11.3 km/h 87% 0 mm 0 W/m2
05:34 12.3 °C 10.2 °C 1010.7 hPa WNW 4.5 km/h 11.3 km/h 87% 0 mm 0 W/m2
05:39 12.3 °C 10.2 °C 1010.7 hPa West 6.3 km/h 11.3 km/h 87% 0.25 mm 0 W/m2
05:44 12.2 °C 10.3 °C 1010.7 hPa West 3.2 km/h 11.3 km/h 87.9% 0.51 mm 0 W/m2
05:49 12.2 °C 10.3 °C 1010.7 hPa West 2.9 km/h 9.7 km/h 88% 0.51 mm 0 W/m2
05:54 12.2 °C 10.3 °C 1010.7 hPa West 2.9 km/h 8 km/h 88% 0.51 mm 0 W/m2
05:59 12.2 °C 10.3 °C 1010.7 hPa West 2.9 km/h 8 km/h 88.7% 0.51 mm 0 W/m2
06:04 12.2 °C 10.4 °C 1010.7 hPa WSW 2.3 km/h 9.7 km/h 89% 0.51 mm 0 W/m2
06:09 12.2 °C 10.4 °C 1011.1 hPa SW 1.8 km/h 8 km/h 89% 0.51 mm 0 W/m2
06:14 12.2 °C 10.4 °C 1011.1 hPa SW 1.6 km/h 6.4 km/h 89% 0.51 mm 5 W/m2
06:19 12.2 °C 10.4 °C 1011.1 hPa WSW 1.9 km/h 6.4 km/h 89% 0.51 mm 0 W/m2
06:24 12.2 °C 10.4 °C 1011.1 hPa WSW 6.1 km/h 8 km/h 89% 0.51 mm 11 W/m2
06:29 12.2 °C 10.4 °C 1011.1 hPa WSW 3.7 km/h 9.7 km/h 89% 0.51 mm 16 W/m2
06:34 12.2 °C 10.4 °C 1011.4 hPa West 3.5 km/h 9.7 km/h 89% 0.51 mm 25 W/m2
06:39 12.1 °C 10.3 °C 1011.4 hPa WSW 3.5 km/h 11.3 km/h 89% 0.51 mm 32 W/m2
06:44 12.1 °C 10.3 °C 1011.4 hPa WSW 4.5 km/h 11.3 km/h 89% 0.25 mm 58 W/m2
06:49 12.2 °C 10.3 °C 1011.4 hPa WSW 6.9 km/h 14.5 km/h 89% 0.51 mm 58 W/m2
06:54 12.2 °C 10.3 °C 1011.4 hPa WSW 5.6 km/h 11.3 km/h 89% 0.51 mm 44 W/m2
06:59 12.1 °C 10.3 °C 1011.4 hPa WSW 3.2 km/h 9.7 km/h 89% 0.51 mm 35 W/m2
07:04 12.1 °C 10.3 °C 1011.7 hPa WSW 2.7 km/h 9.7 km/h 89% 0.51 mm 60 W/m2
07:09 12.2 °C 10.3 °C 1011.4 hPa WSW 5.5 km/h 11.3 km/h 89% 0.51 mm 102 W/m2
07:14 12.2 °C 10.4 °C 1011.7 hPa SW 7.1 km/h 14.5 km/h 89% 0.51 mm 107 W/m2
07:19 12.2 °C 10.5 °C 1011.7 hPa WSW 5.3 km/h 14.5 km/h 89.4% 0.51 mm 97 W/m2
07:24 12.3 °C 10.7 °C 1011.7 hPa WSW 2.7 km/h 11.3 km/h 89.6% 0.51 mm 86 W/m2
07:29 12.4 °C 10.8 °C 1011.7 hPa SW 5.6 km/h 12.9 km/h 90% 0.51 mm 72 W/m2
07:34 12.5 °C 10.9 °C 1011.7 hPa WSW 7.4 km/h 14.5 km/h 90% 0.51 mm 107 W/m2
07:39 12.6 °C 10.9 °C 1011.7 hPa WSW 7.9 km/h 17.7 km/h 90% 0.51 mm 137 W/m2
07:44 12.6 °C 10.9 °C 1011.7 hPa WSW 8 km/h 17.7 km/h 89.5% 0.76 mm 132 W/m2
07:49 12.6 °C 10.8 °C 1011.7 hPa West 6.1 km/h 14.5 km/h 89.1% 0.76 mm 109 W/m2
07:54 12.7 °C 10.9 °C 1012.1 hPa West 3.1 km/h 12.9 km/h 89.6% 0.76 mm 56 W/m2
07:59 12.7 °C 11.1 °C 1012.1 hPa West 3.2 km/h 6.4 km/h 90% 1.52 mm 40 W/m2
08:04 12.6 °C 11 °C 1012.1 hPa West 1.9 km/h 8 km/h 90% 1.52 mm 46 W/m2
08:09 12.7 °C 11.1 °C 1012.1 hPa West 0.5 km/h 6.4 km/h 90% 1.52 mm 62 W/m2
08:14 12.6 °C 11 °C 1012.1 hPa West 4.5 km/h 12.9 km/h 90% 1.52 mm 128 W/m2
08:19 12.7 °C 11.1 °C 1012.1 hPa WSW 3.2 km/h 11.3 km/h 90.1% 1.52 mm 223 W/m2
08:24 12.7 °C 11.3 °C 1012.4 hPa WSW 1.9 km/h 11.3 km/h 91% 1.52 mm 225 W/m2
08:29 12.9 °C 11.5 °C 1012.4 hPa WSW 3.1 km/h 9.7 km/h 91% 1.52 mm 162 W/m2
08:34 12.9 °C 11.5 °C 1012.4 hPa WSW 5.6 km/h 14.5 km/h 91% 3.3 mm 58 W/m2
08:39 12.8 °C 11.4 °C 1012.4 hPa WSW 0.8 km/h 14.5 km/h 91% 3.81 mm 47 W/m2
08:44 12.8 °C 11.4 °C 1012.4 hPa WSW 1 km/h 11.3 km/h 91% 3.81 mm 63 W/m2
08:49 12.8 °C 11.4 °C 1012.4 hPa WSW 0.6 km/h 11.3 km/h 91% 4.32 mm 95 W/m2
08:54 12.8 °C 11.4 °C 1012.4 hPa Calm   3.2 km/h 91% 4.32 mm 137 W/m2
08:59 12.9 °C 11.5 °C 1012.8 hPa WSW 0.8 km/h 4.8 km/h 91% 3.56 mm 146 W/m2
09:04 13 °C 11.6 °C 1012.8 hPa West 4.2 km/h 9.7 km/h 91% 3.3 mm 93 W/m2
09:09 13.1 °C 11.7 °C 1012.8 hPa West 7.1 km/h 12.9 km/h 91.7% 3.56 mm 86 W/m2
09:14 13.1 °C 11.8 °C 1012.8 hPa West 8.2 km/h 16.1 km/h 92% 3.81 mm 116 W/m2
09:19 13.1 °C 11.8 °C 1012.8 hPa West 6.1 km/h 16.1 km/h 92% 4.32 mm 123 W/m2
09:24 13.1 °C 11.8 °C 1012.8 hPa WSW 4.2 km/h 14.5 km/h 92% 4.32 mm 125 W/m2
09:29 13.2 °C 11.9 °C 1013.1 hPa WSW 2.7 km/h 11.3 km/h 92% 4.57 mm 125 W/m2
09:34 13.2 °C 11.9 °C 1013.1 hPa WSW 4.8 km/h 14.5 km/h 92% 3.81 mm 84 W/m2
09:39 13.1 °C 11.8 °C 1013.1 hPa WSW 4.2 km/h 12.9 km/h 92% 3.05 mm 139 W/m2
09:44 13.2 °C 11.9 °C 1013.1 hPa WSW 3.5 km/h 12.9 km/h 92% 3.05 mm 174 W/m2
09:49 13.2 °C 11.9 °C 1013.1 hPa West 5 km/h 12.9 km/h 92% 2.79 mm 199 W/m2
09:54 13.3 °C 12.1 °C 1013.1 hPa West 5.8 km/h 12.9 km/h 92% 2.29 mm 294 W/m2
09:59 13.5 °C 12.2 °C 1013.1 hPa WSW 4.5 km/h 9.7 km/h 92% 2.29 mm 338 W/m2
10:04 13.7 °C 12.4 °C 1013.4 hPa WSW 6.8 km/h 12.9 km/h 92.3% 2.29 mm 239 W/m2
10:09 13.7 °C 12.4 °C 1013.4 hPa WSW 6.1 km/h 11.3 km/h 92% 2.03 mm 243 W/m2
10:14 13.9 °C 12.6 °C 1013.1 hPa SW 2.7 km/h 8 km/h 92% 1.52 mm 229 W/m2
10:19 13.9 °C 12.6 °C 1013.4 hPa WSW 7.6 km/h 14.5 km/h 92% 1.27 mm 206 W/m2
10:24 13.8 °C 12.6 °C 1013.4 hPa West 6.4 km/h 14.5 km/h 92% 1.27 mm 274 W/m2
10:29 13.8 °C 12.4 °C 1013.4 hPa West 7.4 km/h 12.9 km/h 91% 1.02 mm 294 W/m2
10:34 13.8 °C 12.4 °C 1013.4 hPa West 8 km/h 16.1 km/h 91% 1.02 mm 294 W/m2
10:39 13.7 °C 12.3 °C 1013.4 hPa West 8.7 km/h 16.1 km/h 90.9% 0.51 mm 146 W/m2
10:44 13.6 °C 11.9 °C 1013.8 hPa WSW 9.7 km/h 17.7 km/h 90% 0.76 mm 109 W/m2
10:49 13.3 °C 11.7 °C 1013.8 hPa West 9.5 km/h 17.7 km/h 90% 0.76 mm 111 W/m2
10:54 13.2 °C 11.6 °C 1014.1 hPa West 5.5 km/h 14.5 km/h 90% 1.02 mm 84 W/m2
10:59 13.1 °C 11.5 °C 1014.1 hPa West 7.6 km/h 16.1 km/h 90% 1.02 mm 107 W/m2
11:04 12.9 °C 11.3 °C 1014.1 hPa West 7.6 km/h 16.1 km/h 90% 1.52 mm 227 W/m2
11:09 12.8 °C 11.3 °C 1014.1 hPa WSW 6 km/h 9.7 km/h 90.3% 1.78 mm 316 W/m2
11:14 12.9 °C 11.6 °C 1014.1 hPa WSW 4.3 km/h 9.7 km/h 91% 1.78 mm 338 W/m2
11:19 13.3 °C 11.9 °C 1014.1 hPa WSW 4.2 km/h 12.9 km/h 91.2% 1.78 mm 418 W/m2
11:24 13.4 °C 12.1 °C 1014.1 hPa West 6.3 km/h 12.9 km/h 91% 1.52 mm 933 W/m2
11:29 13.9 °C 12.5 °C 1014.1 hPa WNW 2.3 km/h 12.9 km/h 91.3% 1.52 mm 555 W/m2
11:34 14.4 °C 13.1 °C 1014.1 hPa West 9.5 km/h 17.7 km/h 91.7% 1.52 mm 916 W/m2
11:39 14.9 °C 13.4 °C 1014.1 hPa West 6.1 km/h 17.7 km/h 91% 1.27 mm 925 W/m2
11:44 15.3 °C 13.7 °C 1014.1 hPa West 11.7 km/h 17.7 km/h 90.1% 1.27 mm 925 W/m2
11:49 15.4 °C 13.4 °C 1014.1 hPa WSW 10.3 km/h 24.1 km/h 87.8% 1.02 mm 512 W/m2
11:54 15 °C 12.7 °C 1014.1 hPa West 11.9 km/h 24.1 km/h 86% 0.76 mm 359 W/m2
11:59 14.7 °C 12.3 °C 1014.1 hPa West 9.2 km/h 17.7 km/h 85.4% 0.76 mm 299 W/m2
12:04 15.1 °C 12.8 °C 1014.1 hPa West 7.7 km/h 14.5 km/h 86.1% 0.51 mm 821 W/m2
12:09 15.3 °C 12.9 °C 1014.1 hPa WSW 9.8 km/h 20.9 km/h 85.5% 0.25 mm 443 W/m2
12:14 15.5 °C 13 °C 1014.1 hPa West 9.2 km/h 19.3 km/h 85% 0.25 mm 494 W/m2
12:19 15.5 °C 12.8 °C 1014.1 hPa West 11.4 km/h 22.5 km/h 83.9% 0.25 mm 494 W/m2
12:24 15.3 °C 12.3 °C 1014.4 hPa West 9.2 km/h 19.3 km/h 82.3% 0.25 mm 406 W/m2
12:29 15.4 °C 12.3 °C 1014.4 hPa West 9.3 km/h 16.1 km/h 82% 0.25 mm 406 W/m2
12:34 15.6 °C 12.3 °C 1014.4 hPa West 15.9 km/h 32.2 km/h 80.5% 0.25 mm 309 W/m2
12:39 15.6 °C 12.2 °C 1014.4 hPa West 13.5 km/h 32.2 km/h 80.3% 0.25 mm 348 W/m2
12:44 15.5 °C 12.2 °C 1014.4 hPa WSW 12.1 km/h 32.2 km/h 80.7% 0.25 mm 452 W/m2
12:49 15.5 °C 12.4 °C 1014.4 hPa WSW 11.4 km/h 32.2 km/h 82% 0.25 mm 483 W/m2
12:54 15.7 °C 12.6 °C 1014.4 hPa West 14 km/h 24.1 km/h 82% 0 mm 497 W/m2
12:59 15.8 °C 12.7 °C 1014.4 hPa West 9.3 km/h 24.1 km/h 82% 0 mm 343 W/m2
13:04 15.9 °C 12.7 °C 1014.4 hPa WSW 12.1 km/h 27.4 km/h 81.3% 0 mm 411 W/m2
13:09 16.2 °C 12.8 °C 1014.4 hPa West 8.4 km/h 27.4 km/h 80.6% 0 mm 724 W/m2
13:14 17 °C 13.5 °C 1014.4 hPa WSW 7.2 km/h 14.5 km/h 79.8% 0 mm 724 W/m2
13:19 17.1 °C 13.1 °C 1014.4 hPa West 11.6 km/h 22.5 km/h 77.3% 0 mm 540 W/m2
13:24 16.8 °C 12.7 °C 1014.4 hPa WNW 9.8 km/h 22.5 km/h 76.8% 0 mm 524 W/m2
13:29 16.8 °C 12.4 °C 1014.4 hPa West 16.3 km/h 30.6 km/h 75.1% 0 mm 967 W/m2
13:34 17.3 °C 12.3 °C 1014.4 hPa West 14.2 km/h 30.6 km/h 72.6% 0 mm 1000 W/m2
13:39 17.5 °C 12.3 °C 1014.8 hPa West 14.8 km/h 29 km/h 71.6% 0 mm 990 W/m2
13:44 17.6 °C 12.4 °C 1014.8 hPa West 12.6 km/h 29 km/h 71.7% 0 mm 886 W/m2
13:49 17.7 °C 12 °C 1014.8 hPa West 19.8 km/h 32.2 km/h 69.4% 0 mm 886 W/m2
13:54 17.3 °C 10.9 °C 1014.8 hPa West 21.2 km/h 35.4 km/h 66.1% 0 mm 770 W/m2
13:59 17.1 °C 10.5 °C 1014.8 hPa West 20.8 km/h 38.6 km/h 65.2% 0 mm 754 W/m2
14:04 17.3 °C 10.8 °C 1015.1 hPa West 21.6 km/h 37 km/h 65.4% 0 mm 752 W/m2
14:09 17.7 °C 11.4 °C 1015.1 hPa West 13.7 km/h 37 km/h 66.5% 0 mm 807 W/m2
14:14 17.7 °C 11.1 °C 1015.1 hPa WNW 18.3 km/h 35.4 km/h 64.8% 0 mm 807 W/m2
14:19 17.3 °C 10.8 °C 1015.1 hPa WNW 20.3 km/h 35.4 km/h 65.5% 0 mm 807 W/m2
14:24 17.2 °C 10.8 °C 1015.1 hPa WNW 19.2 km/h 37 km/h 66% 0 mm 765 W/m2
14:29 17.2 °C 10.9 °C 1015.1 hPa WNW 19.2 km/h 37 km/h 66.2% 0 mm 780 W/m2
14:34 17.7 °C 11.2 °C 1015.1 hPa WNW 15.9 km/h 35.4 km/h 66% 0 mm 777 W/m2
14:39 17.6 °C 10.9 °C 1015.1 hPa WNW 19.6 km/h 38.6 km/h 65% 0 mm 810 W/m2
14:44 17.4 °C 11.1 °C 1015.1 hPa West 21.9 km/h 40.2 km/h 66.4% 0 mm 773 W/m2
14:49 17.4 °C 11.6 °C 1015.1 hPa WNW 17.4 km/h 29 km/h 68.5% 0 mm 793 W/m2
14:54 17.3 °C 11.2 °C 1015.1 hPa West 20.8 km/h 37 km/h 67.1% 0 mm 830 W/m2
14:59 17.2 °C 11 °C 1015.1 hPa WNW 21.2 km/h 37 km/h 67% 0 mm 744 W/m2
15:04 17.4 °C 11 °C 1015.1 hPa West 20 km/h 35.4 km/h 66.1% 0 mm 751 W/m2
15:09 17.6 °C 10.8 °C 1015.1 hPa West 21.2 km/h 35.4 km/h 64.5% 0 mm 759 W/m2
15:14 17.7 °C 10.9 °C 1015.5 hPa WNW 20 km/h 38.6 km/h 64.9% 0 mm 717 W/m2
15:19 17.8 °C 11.4 °C 1015.5 hPa WNW 12.6 km/h 35.4 km/h 66% 0 mm 693 W/m2
15:24 18 °C 11.6 °C 1015.5 hPa West 16.4 km/h 29 km/h 65.9% 0 mm 684 W/m2
15:29 17.9 °C 11.7 °C 1015.5 hPa West 17.5 km/h 32.2 km/h 66.8% 0 mm 680 W/m2
15:34 17.9 °C 11.6 °C 1015.5 hPa WNW 15.3 km/h 27.4 km/h 66.3% 0 mm 677 W/m2
15:39 18.1 °C 11.6 °C 1015.5 hPa WNW 17.4 km/h 27.4 km/h 66% 0 mm 661 W/m2
15:44 17.9 °C 11.6 °C 1015.5 hPa West 19.8 km/h 30.6 km/h 66.2% 0 mm 649 W/m2
15:49 17.9 °C 11.7 °C 1015.5 hPa WNW 18.3 km/h 37 km/h 66.6% 0 mm 642 W/m2
15:54 17.9 °C 11.7 °C 1015.5 hPa West 19.3 km/h 25.7 km/h 66.7% 0 mm 640 W/m2
15:59 17.8 °C 11 °C 1015.8 hPa WNW 19.3 km/h 35.4 km/h 64.4% 0 mm 633 W/m2
16:04 17.9 °C 11 °C 1015.8 hPa WNW 16.3 km/h 33.8 km/h 64% 0 mm 601 W/m2
16:09 17.8 °C 11.1 °C 1015.8 hPa WNW 18.7 km/h 33.8 km/h 64.5% 0 mm 594 W/m2
16:14 17.7 °C 10.7 °C 1015.8 hPa WNW 24.3 km/h 45.1 km/h 63.5% 0 mm 584 W/m2
16:19 17.6 °C 10.7 °C 1015.8 hPa WNW 21.1 km/h 38.6 km/h 64.2% 0 mm 577 W/m2
16:24 17.7 °C 10.9 °C 1015.8 hPa WNW 15.1 km/h 33.8 km/h 65% 0 mm 584 W/m2
16:29 17.7 °C 11.3 °C 1015.8 hPa WNW 17.7 km/h 29 km/h 66% 0 mm 596 W/m2
16:34 17.4 °C 11.1 °C 1016.1 hPa WNW 14.5 km/h 29 km/h 66.3% 0 mm 192 W/m2
16:39 17.4 °C 11.2 °C 1016.1 hPa WNW 17.9 km/h 33.8 km/h 66.5% 0 mm 557 W/m2
16:44 17.6 °C 10.9 °C 1016.1 hPa WNW 19 km/h 33.8 km/h 65% 0 mm 531 W/m2
16:49 17.7 °C 10.7 °C 1016.1 hPa West 18.5 km/h 33.8 km/h 63.7% 0 mm 508 W/m2
16:54 17.7 °C 10.4 °C 1016.1 hPa West 18.3 km/h 35.4 km/h 62.6% 0 mm 494 W/m2
16:59 17.7 °C 10.3 °C 1016.1 hPa West 17.7 km/h 35.4 km/h 62% 0 mm 494 W/m2
17:04 17.5 °C 10.4 °C 1016.1 hPa West 19.2 km/h 35.4 km/h 62.9% 0 mm 520 W/m2
17:09 17.3 °C 10.5 °C 1016.1 hPa West 15.6 km/h 33.8 km/h 64.2% 0 mm 520 W/m2
17:14 17.5 °C 10.9 °C 1016.1 hPa WNW 15.4 km/h 30.6 km/h 65.2% 0 mm 464 W/m2
17:19 17.4 °C 10.9 °C 1016.1 hPa WNW 18.2 km/h 30.6 km/h 65.6% 0 mm 446 W/m2
17:24 17.3 °C 11 °C 1016.1 hPa WNW 13.7 km/h 29 km/h 66.4% 0 mm 439 W/m2
17:29 17.6 °C 11.1 °C 1016.1 hPa WNW 14.5 km/h 32.2 km/h 65.8% 0 mm 406 W/m2
17:34 17.4 °C 11.2 °C 1016.1 hPa WNW 15.9 km/h 25.7 km/h 66.9% 0 mm 390 W/m2
17:39 17.3 °C 11.1 °C 1016.1 hPa WNW 14.2 km/h 25.7 km/h 67% 0 mm 381 W/m2
17:44 17.3 °C 11.3 °C 1016.1 hPa WNW 10.9 km/h 20.9 km/h 67.5% 0 mm 378 W/m2
17:49 17.4 °C 11.4 °C 1016.1 hPa WNW 14.8 km/h 24.1 km/h 68% 0 mm 376 W/m2
17:54 17.3 °C 10.9 °C 1016.1 hPa WNW 21.4 km/h 32.2 km/h 66.2% 0 mm 352 W/m2
17:59 17.2 °C 10.8 °C 1016.5 hPa WNW 16.1 km/h 29 km/h 66.1% 0 mm 336 W/m2
18:04 17.2 °C 10.9 °C 1016.5 hPa West 20.9 km/h 35.4 km/h 66.8% 0 mm 316 W/m2
18:09 17.1 °C 11.1 °C 1016.5 hPa WNW 15.1 km/h 35.4 km/h 67.7% 0 mm 301 W/m2
18:14 17.1 °C 11.3 °C 1016.5 hPa WNW 17.7 km/h 32.2 km/h 68.5% 0 mm 285 W/m2
18:19 16.8 °C 11.2 °C 1016.5 hPa WNW 17.9 km/h 37 km/h 69.4% 0 mm 285 W/m2
18:24 16.8 °C 11.3 °C 1016.5 hPa West 18.5 km/h 30.6 km/h 69.7% 0 mm 281 W/m2
18:29 16.9 °C 11.4 °C 1016.5 hPa WNW 11.7 km/h 25.7 km/h 70% 0 mm 241 W/m2
18:34 17.1 °C 11.6 °C 1016.5 hPa West 9.5 km/h 19.3 km/h 70% 0 mm 229 W/m2
18:39 17 °C 11.5 °C 1016.5 hPa WNW 18.2 km/h 27.4 km/h 70% 0 mm 211 W/m2
18:44 16.8 °C 11.1 °C 1016.5 hPa West 14 km/h 25.7 km/h 69.1% 0 mm 199 W/m2
18:49 16.8 °C 10.9 °C 1016.5 hPa West 15 km/h 24.1 km/h 68.1% 0 mm 179 W/m2
18:54 16.7 °C 10.9 °C 1016.8 hPa West 14.8 km/h 27.4 km/h 68.7% 0 mm 165 W/m2
18:59 16.5 °C 10.8 °C 1016.8 hPa West 13.7 km/h 27.4 km/h 69% 0 mm 146 W/m2
19:04 16.4 °C 10.8 °C 1016.8 hPa West 15.9 km/h 27.4 km/h 69.4% 0 mm 137 W/m2
19:09 16.3 °C 10.8 °C 1016.8 hPa West 15.1 km/h 29 km/h 70% 0 mm 114 W/m2
19:14 16.3 °C 10.9 °C 1016.8 hPa WNW 11.6 km/h 24.1 km/h 70.7% 0 mm 104 W/m2
19:19 16.2 °C 11 °C 1016.8 hPa West 12.2 km/h 25.7 km/h 71.5% 0 mm 90 W/m2
19:24 16.1 °C 11.1 °C 1016.8 hPa WNW 9.5 km/h 22.5 km/h 72% 0 mm 79 W/m2
19:29 16 °C 11.2 °C 1016.8 hPa West 8.5 km/h 25.7 km/h 72.7% 0 mm 72 W/m2
19:34 15.9 °C 11.1 °C 1016.8 hPa West 8.9 km/h 19.3 km/h 73% 0 mm 63 W/m2
19:39 15.8 °C 11.2 °C 1016.8 hPa West 8.4 km/h 14.5 km/h 73.8% 0 mm 56 W/m2
19:44 15.8 °C 11.2 °C 1016.8 hPa WNW 10.3 km/h 17.7 km/h 74% 0 mm 47 W/m2
19:49 15.7 °C 11.1 °C 1016.8 hPa WNW 10.9 km/h 20.9 km/h 74% 0 mm 40 W/m2
19:54 15.4 °C 10.8 °C 1016.8 hPa West 11.6 km/h 24.1 km/h 74% 0 mm 32 W/m2
19:59 15.4 °C 10.8 °C 1017.2 hPa West 14 km/h 24.1 km/h 74% 0 mm 26 W/m2
20:04 15.3 °C 10.6 °C 1017.2 hPa West 10.1 km/h 20.9 km/h 73.7% 0 mm 21 W/m2
20:09 15.1 °C 10.5 °C 1017.2 hPa West 8.5 km/h 16.1 km/h 74% 0 mm 18 W/m2
20:14 14.9 °C 10.3 °C 1017.2 hPa West 8.5 km/h 16.1 km/h 74% 0 mm 14 W/m2
20:19 14.8 °C 10.2 °C 1017.2 hPa West 6.9 km/h 14.5 km/h 74% 0 mm 11 W/m2
20:24 14.8 °C 10.2 °C 1017.2 hPa West 6.3 km/h 12.9 km/h 74% 0 mm 7 W/m2
20:29 14.7 °C 10.1 °C 1017.2 hPa West 5 km/h 12.9 km/h 74.2% 0 mm 0 W/m2
20:34 14.6 °C 10.2 °C 1017.5 hPa West 4.8 km/h 14.5 km/h 75% 0 mm 0 W/m2
20:39 14.4 °C 10.1 °C 1017.5 hPa WNW 2.7 km/h 6.4 km/h 75% 0 mm 0 W/m2
20:44 14.3 °C 9.9 °C 1017.5 hPa WNW 2.7 km/h 8 km/h 75% 0 mm 0 W/m2
20:49 14.3 °C 9.9 °C 1017.5 hPa WNW 1 km/h 8 km/h 75% 0 mm 0 W/m2
20:54 14.2 °C 9.8 °C 1017.8 hPa WNW 0.2 km/h 3.2 km/h 75% 0 mm 0 W/m2
20:59 14.2 °C 9.8 °C 1017.8 hPa WNW 0.2 km/h 3.2 km/h 75% 0 mm 0 W/m2
21:04 14.2 °C 10 °C 1017.8 hPa Calm   1.6 km/h 76% 0 mm 0 W/m2
21:09 14.1 °C 9.9 °C 1017.8 hPa Calm   1.6 km/h 76% 0 mm 0 W/m2
21:14 14.1 °C 9.8 °C 1017.8 hPa WNW 0.5 km/h 4.8 km/h 76% 0 mm 0 W/m2
21:19 14 °C 9.9 °C 1018.2 hPa WNW 1.1 km/h 4.8 km/h 76.6% 0 mm 0 W/m2
21:24 14 °C 10.2 °C 1018.2 hPa WNW 3.9 km/h 9.7 km/h 77.9% 0 mm 0 W/m2
21:29 13.8 °C 10.3 °C 1018.2 hPa WNW 5 km/h 9.7 km/h 79.6% 0 mm 0 W/m2
21:34 13.7 °C 10.5 °C 1018.2 hPa West 4.5 km/h 11.3 km/h 81% 0 mm 0 W/m2
21:39 13.7 °C 10.7 °C 1018.2 hPa West 1.3 km/h 4.8 km/h 82% 0 mm 0 W/m2
21:44 13.6 °C 10.7 °C 1018.2 hPa West 1.1 km/h 4.8 km/h 82.9% 0 mm 0 W/m2
21:49 13.5 °C 10.7 °C 1018.2 hPa West 0.2 km/h 3.2 km/h 83.2% 0 mm 0 W/m2
21:54 13.4 °C 10.8 °C 1018.2 hPa West 0.3 km/h 3.2 km/h 84% 0 mm 0 W/m2
21:59 13.4 °C 10.8 °C 1018.2 hPa West 0.3 km/h 3.2 km/h 84.3% 0 mm 0 W/m2
22:04 13.3 °C 10.8 °C 1018.2 hPa Calm   3.2 km/h 85% 0 mm 0 W/m2
22:09 13.2 °C 10.7 °C 1018.2 hPa West 0.8 km/h 4.8 km/h 85% 0 mm 0 W/m2
22:14 13.2 °C 10.7 °C 1018.2 hPa West 1.4 km/h 4.8 km/h 85% 0 mm 0 W/m2
22:19 13.1 °C 10.6 °C 1018.2 hPa West 1 km/h 6.4 km/h 85% 0 mm 0 W/m2
22:24 13.1 °C 10.6 °C 1018.2 hPa West 2.3 km/h 6.4 km/h 85% 0 mm 0 W/m2
22:29 13.2 °C 10.6 °C 1018.5 hPa West 3.7 km/h 8 km/h 84.7% 0 mm 0 W/m2
22:34 13.1 °C 10.5 °C 1018.5 hPa West 1.1 km/h 8 km/h 84% 0 mm 0 W/m2
22:39 13.1 °C 10.5 °C 1018.5 hPa West 1 km/h 4.8 km/h 84% 0 mm 0 W/m2
22:44 13.1 °C 10.4 °C 1018.5 hPa West 1.8 km/h 6.4 km/h 84% 0 mm 0 W/m2
22:49 13 °C 10.4 °C 1018.5 hPa West 1.1 km/h 4.8 km/h 84% 0 mm 0 W/m2
22:54 13 °C 10.4 °C 1018.5 hPa West 2.3 km/h 6.4 km/h 84% 0 mm 0 W/m2
22:59 13 °C 10.4 °C 1018.5 hPa West 2.6 km/h 6.4 km/h 84% 0 mm 0 W/m2
23:04 13 °C 10.4 °C 1018.8 hPa West 2.9 km/h 9.7 km/h 84% 0 mm 0 W/m2
23:09 13 °C 10.4 °C 1018.8 hPa West 3.5 km/h 9.7 km/h 84% 0 mm 0 W/m2
23:14 12.9 °C 10.3 °C 1018.8 hPa West 3.5 km/h 9.7 km/h 84% 0 mm 0 W/m2
23:19 12.9 °C 10.3 °C 1018.8 hPa West 3.2 km/h 9.7 km/h 84% 0 mm 0 W/m2
23:24 12.8 °C 10.2 °C 1018.8 hPa West 1.1 km/h 4.8 km/h 84% 0 mm 0 W/m2
23:29 12.7 °C 10.1 °C 1018.8 hPa West 0.5 km/h 3.2 km/h 84% 0 mm 0 W/m2
23:34 12.7 °C 10.1 °C 1018.8 hPa Calm   1.6 km/h 84% 0 mm 0 W/m2
23:39 12.6 °C 10 °C 1018.8 hPa West 0.8 km/h 4.8 km/h 84% 0 mm 0 W/m2
23:44 12.5 °C 9.9 °C 1018.8 hPa Calm   1.6 km/h 84% 0 mm 0 W/m2
23:49 12.5 °C 9.9 °C 1018.8 hPa West 0.2 km/h 4.8 km/h 84.3% 0 mm 0 W/m2
23:54 12.5 °C 10 °C 1018.8 hPa Calm     85% 0 mm 0 W/m2
23:59 12.4 °C 9.9 °C 1018.8 hPa Calm     85% 0 mm 0 W/m2
Bath Spa Weather
Compliments of Weather Underground - 2 mb